sensor_id;sensor_type;location;lat;lon;timestamp;pressure;altitude;pressure_sealevel;temperature;humidity
7662;BME280;30314;48.184;11.510;2023-05-08T00:01:17;96128.53;;;14.03;100.00
7662;BME280;30314;48.184;11.510;2023-05-08T00:03:43;96127.72;;;14.03;100.00
7662;BME280;30314;48.184;11.510;2023-05-08T00:06:10;96142.19;;;14.11;100.00
7662;BME280;30314;48.184;11.510;2023-05-08T00:08:37;96140.44;;;14.06;100.00
7662;BME280;30314;48.184;11.510;2023-05-08T00:11:04;96137.88;;;14.15;100.00
7662;BME280;30314;48.184;11.510;2023-05-08T00:13:31;96122.75;;;14.01;100.00
7662;BME280;30314;48.184;11.510;2023-05-08T00:15:57;96138.19;;;13.99;100.00
7662;BME280;30314;48.184;11.510;2023-05-08T00:18:24;96152.44;;;14.03;100.00
7662;BME280;30314;48.184;11.510;2023-05-08T00:20:52;96143.19;;;14.01;100.00
7662;BME280;30314;48.184;11.510;2023-05-08T00:23:18;96167.88;;;14.01;100.00
7662;BME280;30314;48.184;11.510;2023-05-08T00:25:47;96128.31;;;13.77;100.00
7662;BME280;30314;48.184;11.510;2023-05-08T00:28:14;96166.03;;;13.88;100.00
7662;BME280;30314;48.184;11.510;2023-05-08T00:30:40;96155.53;;;13.82;100.00
7662;BME280;30314;48.184;11.510;2023-05-08T00:33:08;96150.13;;;13.74;100.00
7662;BME280;30314;48.184;11.510;2023-05-08T00:35:35;96149.94;;;13.70;100.00
7662;BME280;30314;48.184;11.510;2023-05-08T00:38:01;96166.75;;;13.79;100.00
7662;BME280;30314;48.184;11.510;2023-05-08T00:40:28;96145.25;;;13.67;100.00
7662;BME280;30314;48.184;11.510;2023-05-08T00:42:55;96139.66;;;13.55;100.00
7662;BME280;30314;48.184;11.510;2023-05-08T00:45:21;96160.56;;;13.70;100.00
7662;BME280;30314;48.184;11.510;2023-05-08T00:47:49;96167.63;;;13.75;100.00
7662;BME280;30314;48.184;11.510;2023-05-08T00:50:17;96167.34;;;13.76;100.00
7662;BME280;30314;48.184;11.510;2023-05-08T00:52:45;96164.31;;;13.69;100.00
7662;BME280;30314;48.184;11.510;2023-05-08T00:55:11;96162.16;;;13.71;100.00
7662;BME280;30314;48.184;11.510;2023-05-08T00:57:38;96151.44;;;13.62;100.00
7662;BME280;30314;48.184;11.510;2023-05-08T01:00:05;96150.66;;;13.62;100.00
7662;BME280;30314;48.184;11.510;2023-05-08T01:02:33;96154.69;;;13.59;100.00
7662;BME280;30314;48.184;11.510;2023-05-08T01:05:01;96163.53;;;13.55;100.00
7662;BME280;30314;48.184;11.510;2023-05-08T01:07:29;96164.41;;;13.50;100.00
7662;BME280;30314;48.184;11.510;2023-05-08T01:09:55;96154.53;;;13.42;100.00
7662;BME280;30314;48.184;11.510;2023-05-08T01:17:44;96151.19;;;13.36;100.00
7662;BME280;30314;48.184;11.510;2023-05-08T01:23:34;96174.09;;;13.32;100.00
7662;BME280;30314;48.184;11.510;2023-05-08T01:26:34;96174.47;;;13.39;100.00
7662;BME280;30314;48.184;11.510;2023-05-08T01:32:24;96185.25;;;13.29;100.00
7662;BME280;30314;48.184;11.510;2023-05-08T01:37:48;96182.72;;;13.23;100.00
7662;BME280;30314;48.184;11.510;2023-05-08T01:40:34;96188.78;;;13.24;100.00
7662;BME280;30314;48.184;11.510;2023-05-08T01:43:13;96190.56;;;13.29;100.00
7662;BME280;30314;48.184;11.510;2023-05-08T01:45:44;96198.03;;;13.27;100.00
7662;BME280;30314;48.184;11.510;2023-05-08T01:48:29;96192.94;;;13.30;100.00
7662;BME280;30314;48.184;11.510;2023-05-08T01:51:21;96187.16;;;13.28;100.00
7662;BME280;30314;48.184;11.510;2023-05-08T01:53:50;96197.38;;;13.35;100.00
7662;BME280;30314;48.184;11.510;2023-05-08T01:56:21;96183.81;;;13.22;100.00
7662;BME280;30314;48.184;11.510;2023-05-08T01:58:53;96180.84;;;13.24;100.00
7662;BME280;30314;48.184;11.510;2023-05-08T02:01:22;96190.00;;;13.32;100.00
7662;BME280;30314;48.184;11.510;2023-05-08T02:03:51;96186.25;;;13.33;100.00
7662;BME280;30314;48.184;11.510;2023-05-08T02:06:20;96200.50;;;13.37;100.00
7662;BME280;30314;48.184;11.510;2023-05-08T02:08:48;96205.59;;;13.33;100.00
7662;BME280;30314;48.184;11.510;2023-05-08T02:11:17;96194.63;;;13.26;100.00
7662;BME280;30314;48.184;11.510;2023-05-08T02:13:46;96211.22;;;13.32;100.00
7662;BME280;30314;48.184;11.510;2023-05-08T02:16:14;96190.00;;;13.32;100.00
7662;BME280;30314;48.184;11.510;2023-05-08T02:18:46;96211.72;;;13.34;100.00
7662;BME280;30314;48.184;11.510;2023-05-08T02:21:14;96183.69;;;13.28;100.00
7662;BME280;30314;48.184;11.510;2023-05-08T02:23:42;96175.53;;;13.10;100.00
7662;BME280;30314;48.184;11.510;2023-05-08T02:26:10;96204.84;;;13.33;100.00
7662;BME280;30314;48.184;11.510;2023-05-08T02:28:38;96194.91;;;13.24;100.00
7662;BME280;30314;48.184;11.510;2023-05-08T02:31:07;96192.25;;;13.24;100.00
7662;BME280;30314;48.184;11.510;2023-05-08T02:33:36;96209.06;;;13.34;100.00
7662;BME280;30314;48.184;11.510;2023-05-08T02:36:04;96204.13;;;13.27;100.00
7662;BME280;30314;48.184;11.510;2023-05-08T02:38:34;96220.72;;;13.19;100.00
7662;BME280;30314;48.184;11.510;2023-05-08T02:41:04;96217.31;;;13.18;100.00
7662;BME280;30314;48.184;11.510;2023-05-08T02:43:32;96203.41;;;12.93;100.00
7662;BME280;30314;48.184;11.510;2023-05-08T02:48:37;96198.19;;;12.88;100.00
7662;BME280;30314;48.184;11.510;2023-05-08T02:53:45;96219.72;;;13.01;100.00
7662;BME280;30314;48.184;11.510;2023-05-08T02:56:25;96193.69;;;12.89;100.00
7662;BME280;30314;48.184;11.510;2023-05-08T02:58:59;96207.72;;;12.89;100.00
7662;BME280;30314;48.184;11.510;2023-05-08T03:01:32;96211.53;;;12.83;100.00
7662;BME280;30314;48.184;11.510;2023-05-08T03:04:08;96215.25;;;12.82;100.00
7662;BME280;30314;48.184;11.510;2023-05-08T03:06:40;96213.97;;;12.79;100.00
7662;BME280;30314;48.184;11.510;2023-05-08T03:09:15;96222.53;;;12.90;100.00
7662;BME280;30314;48.184;11.510;2023-05-08T03:11:46;96213.00;;;12.89;100.00
7662;BME280;30314;48.184;11.510;2023-05-08T03:14:18;96220.25;;;12.83;100.00
7662;BME280;30314;48.184;11.510;2023-05-08T03:16:49;96215.19;;;12.68;100.00
7662;BME280;30314;48.184;11.510;2023-05-08T03:19:30;96206.63;;;12.57;100.00
7662;BME280;30314;48.184;11.510;2023-05-08T03:21:59;96227.00;;;12.76;100.00
7662;BME280;30314;48.184;11.510;2023-05-08T03:24:29;96214.09;;;12.69;100.00
7662;BME280;30314;48.184;11.510;2023-05-08T03:26:57;96220.00;;;12.66;100.00
7662;BME280;30314;48.184;11.510;2023-05-08T03:29:25;96226.47;;;12.60;100.00
7662;BME280;30314;48.184;11.510;2023-05-08T03:31:53;96226.53;;;12.54;100.00
7662;BME280;30314;48.184;11.510;2023-05-08T03:34:20;96226.03;;;12.52;100.00
7662;BME280;30314;48.184;11.510;2023-05-08T03:36:50;96216.97;;;12.39;100.00
7662;BME280;30314;48.184;11.510;2023-05-08T03:39:17;96212.31;;;12.31;100.00
7662;BME280;30314;48.184;11.510;2023-05-08T03:41:44;96227.56;;;12.39;100.00
7662;BME280;30314;48.184;11.510;2023-05-08T03:44:12;96217.53;;;12.36;100.00
7662;BME280;30314;48.184;11.510;2023-05-08T03:46:41;96231.84;;;12.35;100.00
7662;BME280;30314;48.184;11.510;2023-05-08T03:49:08;96223.91;;;12.35;100.00
7662;BME280;30314;48.184;11.510;2023-05-08T03:51:38;96223.00;;;12.26;100.00
7662;BME280;30314;48.184;11.510;2023-05-08T03:54:06;96225.69;;;12.21;100.00
7662;BME280;30314;48.184;11.510;2023-05-08T03:56:33;96230.63;;;12.27;100.00
7662;BME280;30314;48.184;11.510;2023-05-08T04:00:10;96240.72;;;12.25;100.00
7662;BME280;30314;48.184;11.510;2023-05-08T04:02:15;96244.19;;;12.26;100.00
7662;BME280;30314;48.184;11.510;2023-05-08T04:04:46;96235.88;;;12.14;100.00
7662;BME280;30314;48.184;11.510;2023-05-08T04:07:37;96236.41;;;12.10;100.00
7662;BME280;30314;48.184;11.510;2023-05-08T04:10:11;96226.41;;;12.07;100.00
7662;BME280;30314;48.184;11.510;2023-05-08T04:12:48;96239.59;;;12.12;100.00
7662;BME280;30314;48.184;11.510;2023-05-08T04:15:23;96254.25;;;12.24;100.00
7662;BME280;30314;48.184;11.510;2023-05-08T04:18:07;96255.31;;;12.04;100.00
7662;BME280;30314;48.184;11.510;2023-05-08T04:20:38;96265.75;;;11.95;100.00
7662;BME280;30314;48.184;11.510;2023-05-08T04:23:06;96258.09;;;11.93;100.00
7662;BME280;30314;48.184;11.510;2023-05-08T04:25:35;96231.44;;;11.65;100.00
7662;BME280;30314;48.184;11.510;2023-05-08T04:28:04;96274.03;;;11.88;100.00
7662;BME280;30314;48.184;11.510;2023-05-08T04:30:32;96229.06;;;11.64;100.00
7662;BME280;30314;48.184;11.510;2023-05-08T04:33:02;96272.47;;;11.87;100.00
7662;BME280;30314;48.184;11.510;2023-05-08T04:35:29;96234.63;;;11.62;100.00
7662;BME280;30314;48.184;11.510;2023-05-08T04:37:57;96274.22;;;11.73;100.00
7662;BME280;30314;48.184;11.510;2023-05-08T04:40:24;96268.16;;;11.72;100.00
7662;BME280;30314;48.184;11.510;2023-05-08T04:42:51;96260.94;;;11.53;100.00
7662;BME280;30314;48.184;11.510;2023-05-08T04:45:20;96276.19;;;11.62;100.00
7662;BME280;30314;48.184;11.510;2023-05-08T04:47:47;96271.47;;;11.59;100.00
7662;BME280;30314;48.184;11.510;2023-05-08T04:50:14;96277.25;;;11.61;100.00
7662;BME280;30314;48.184;11.510;2023-05-08T04:52:41;96268.03;;;11.58;100.00
7662;BME280;30314;48.184;11.510;2023-05-08T04:55:09;96278.84;;;11.62;100.00
7662;BME280;30314;48.184;11.510;2023-05-08T04:57:37;96277.81;;;11.58;100.00
7662;BME280;30314;48.184;11.510;2023-05-08T05:00:04;96242.34;;;11.34;100.00
7662;BME280;30314;48.184;11.510;2023-05-08T05:02:35;96296.78;;;11.65;100.00
7662;BME280;30314;48.184;11.510;2023-05-08T05:05:03;96290.66;;;11.69;100.00
7662;BME280;30314;48.184;11.510;2023-05-08T05:07:30;96276.69;;;11.64;100.00
7662;BME280;30314;48.184;11.510;2023-05-08T05:09:58;96289.84;;;11.69;100.00
7662;BME280;30314;48.184;11.510;2023-05-08T05:12:25;96299.66;;;11.68;100.00
7662;BME280;30314;48.184;11.510;2023-05-08T05:14:52;96298.03;;;11.48;100.00
7662;BME280;30314;48.184;11.510;2023-05-08T05:17:18;96315.88;;;11.62;100.00
7662;BME280;30314;48.184;11.510;2023-05-08T05:19:45;96306.38;;;11.61;100.00
7662;BME280;30314;48.184;11.510;2023-05-08T05:22:12;96286.94;;;11.46;100.00
7662;BME280;30314;48.184;11.510;2023-05-08T05:24:39;96280.13;;;11.40;100.00
7662;BME280;30314;48.184;11.510;2023-05-08T05:27:06;96308.22;;;11.60;100.00
7662;BME280;30314;48.184;11.510;2023-05-08T05:29:33;96312.66;;;11.65;100.00
7662;BME280;30314;48.184;11.510;2023-05-08T05:32:00;96317.78;;;11.56;100.00
7662;BME280;30314;48.184;11.510;2023-05-08T05:34:27;96317.47;;;11.58;100.00
7662;BME280;30314;48.184;11.510;2023-05-08T05:36:54;96329.19;;;11.51;100.00
7662;BME280;30314;48.184;11.510;2023-05-08T05:39:20;96326.56;;;11.51;100.00
7662;BME280;30314;48.184;11.510;2023-05-08T05:41:51;96316.53;;;11.48;100.00
7662;BME280;30314;48.184;11.510;2023-05-08T05:44:18;96329.69;;;11.53;100.00
7662;BME280;30314;48.184;11.510;2023-05-08T05:46:45;96321.09;;;11.43;100.00
7662;BME280;30314;48.184;11.510;2023-05-08T05:49:11;96326.31;;;11.48;100.00
7662;BME280;30314;48.184;11.510;2023-05-08T05:51:38;96311.84;;;11.40;100.00
7662;BME280;30314;48.184;11.510;2023-05-08T05:54:05;96335.00;;;11.53;100.00
7662;BME280;30314;48.184;11.510;2023-05-08T05:56:31;96344.56;;;11.49;100.00
7662;BME280;30314;48.184;11.510;2023-05-08T05:58:58;96309.81;;;11.32;100.00
7662;BME280;30314;48.184;11.510;2023-05-08T06:01:25;96332.16;;;11.45;100.00
7662;BME280;30314;48.184;11.510;2023-05-08T06:03:55;96330.91;;;11.37;100.00
7662;BME280;30314;48.184;11.510;2023-05-08T06:06:21;96336.72;;;11.39;100.00
7662;BME280;30314;48.184;11.510;2023-05-08T06:08:48;96332.97;;;11.45;100.00
7662;BME280;30314;48.184;11.510;2023-05-08T06:11:14;96327.53;;;11.31;100.00
7662;BME280;30314;48.184;11.510;2023-05-08T06:13:41;96327.28;;;11.27;100.00
7662;BME280;30314;48.184;11.510;2023-05-08T06:16:11;96335.19;;;11.33;100.00
7662;BME280;30314;48.184;11.510;2023-05-08T06:18:37;96339.41;;;11.34;100.00
7662;BME280;30314;48.184;11.510;2023-05-08T06:21:04;96327.34;;;11.22;100.00
7662;BME280;30314;48.184;11.510;2023-05-08T06:23:30;96341.81;;;11.30;100.00
7662;BME280;30314;48.184;11.510;2023-05-08T06:25:57;96325.72;;;11.26;100.00
7662;BME280;30314;48.184;11.510;2023-05-08T06:28:23;96305.13;;;10.89;100.00
7662;BME280;30314;48.184;11.510;2023-05-08T06:30:51;96340.66;;;11.12;100.00
7662;BME280;30314;48.184;11.510;2023-05-08T06:33:18;96346.63;;;11.23;100.00
7662;BME280;30314;48.184;11.510;2023-05-08T06:35:46;96356.56;;;11.36;100.00
7662;BME280;30314;48.184;11.510;2023-05-08T06:38:13;96348.94;;;11.35;100.00
7662;BME280;30314;48.184;11.510;2023-05-08T06:40:43;96343.13;;;11.33;100.00
7662;BME280;30314;48.184;11.510;2023-05-08T06:43:11;96350.75;;;11.39;100.00
7662;BME280;30314;48.184;11.510;2023-05-08T06:45:38;96348.41;;;11.33;100.00
7662;BME280;30314;48.184;11.510;2023-05-08T06:48:05;96336.63;;;11.20;100.00
7662;BME280;30314;48.184;11.510;2023-05-08T06:50:32;96343.63;;;11.35;100.00
7662;BME280;30314;48.184;11.510;2023-05-08T06:52:58;96356.31;;;11.62;100.00
7662;BME280;30314;48.184;11.510;2023-05-08T06:55:25;96356.63;;;11.61;100.00
7662;BME280;30314;48.184;11.510;2023-05-08T06:57:51;96365.63;;;11.60;100.00
7662;BME280;30314;48.184;11.510;2023-05-08T07:00:18;96370.06;;;11.64;100.00
7662;BME280;30314;48.184;11.510;2023-05-08T07:02:45;96360.00;;;11.66;100.00
7662;BME280;30314;48.184;11.510;2023-05-08T07:05:12;96366.03;;;11.72;100.00
7662;BME280;30314;48.184;11.510;2023-05-08T07:07:39;96368.78;;;11.86;100.00
7662;BME280;30314;48.184;11.510;2023-05-08T07:10:08;96361.44;;;11.83;100.00
7662;BME280;30314;48.184;11.510;2023-05-08T07:12:35;96367.22;;;11.85;100.00
7662;BME280;30314;48.184;11.510;2023-05-08T07:15:02;96367.56;;;11.78;100.00
7662;BME280;30314;48.184;11.510;2023-05-08T07:17:43;96368.78;;;11.86;100.00
7662;BME280;30314;48.184;11.510;2023-05-08T07:20:10;96371.72;;;11.84;100.00
7662;BME280;30314;48.184;11.510;2023-05-08T07:22:36;96367.16;;;11.90;100.00
7662;BME280;30314;48.184;11.510;2023-05-08T07:25:03;96374.03;;;11.91;100.00
7662;BME280;30314;48.184;11.510;2023-05-08T07:27:30;96384.56;;;11.96;100.00
7662;BME280;30314;48.184;11.510;2023-05-08T07:29:57;96378.72;;;12.00;100.00
7662;BME280;30314;48.184;11.510;2023-05-08T07:32:24;96365.78;;;11.98;100.00
7662;BME280;30314;48.184;11.510;2023-05-08T07:34:50;96370.44;;;12.06;100.00
7662;BME280;30314;48.184;11.510;2023-05-08T07:37:17;96377.41;;;11.97;100.00
7662;BME280;30314;48.184;11.510;2023-05-08T07:39:44;96379.59;;;12.14;100.00
7662;BME280;30314;48.184;11.510;2023-05-08T07:42:12;96373.34;;;12.29;100.00
7662;BME280;30314;48.184;11.510;2023-05-08T07:44:39;96376.22;;;12.33;100.00
7662;BME280;30314;48.184;11.510;2023-05-08T07:47:19;96377.47;;;12.16;100.00
7662;BME280;30314;48.184;11.510;2023-05-08T07:49:46;96379.72;;;12.28;100.00
7662;BME280;30314;48.184;11.510;2023-05-08T07:52:13;96381.97;;;12.40;100.00
7662;BME280;30314;48.184;11.510;2023-05-08T07:54:39;96379.53;;;12.44;100.00
7662;BME280;30314;48.184;11.510;2023-05-08T07:57:06;96381.25;;;12.53;100.00
7662;BME280;30314;48.184;11.510;2023-05-08T07:59:32;96377.31;;;12.51;100.00
7662;BME280;30314;48.184;11.510;2023-05-08T08:01:59;96377.69;;;12.63;100.00
7662;BME280;30314;48.184;11.510;2023-05-08T08:04:26;96379.66;;;12.77;100.00
7662;BME280;30314;48.184;11.510;2023-05-08T08:06:53;96383.00;;;12.82;100.00
7662;BME280;30314;48.184;11.510;2023-05-08T08:09:20;96381.03;;;12.93;100.00
7662;BME280;30314;48.184;11.510;2023-05-08T08:11:47;96383.00;;;13.02;100.00
7662;BME280;30314;48.184;11.510;2023-05-08T08:14:13;96375.63;;;13.18;100.00
7662;BME280;30314;48.184;11.510;2023-05-08T08:16:40;96386.00;;;13.14;100.00
7662;BME280;30314;48.184;11.510;2023-05-08T08:19:07;96372.16;;;13.17;100.00
7662;BME280;30314;48.184;11.510;2023-05-08T08:21:34;96376.81;;;13.25;100.00
7662;BME280;30314;48.184;11.510;2023-05-08T08:24:01;96384.19;;;13.29;100.00
7662;BME280;30314;48.184;11.510;2023-05-08T08:26:27;96378.97;;;13.57;100.00
7662;BME280;30314;48.184;11.510;2023-05-08T08:28:53;96379.97;;;13.75;100.00
7662;BME280;30314;48.184;11.510;2023-05-08T08:31:20;96384.72;;;13.92;100.00
7662;BME280;30314;48.184;11.510;2023-05-08T08:33:47;96391.28;;;13.80;100.00
7662;BME280;30314;48.184;11.510;2023-05-08T08:36:14;96384.72;;;13.78;100.00
7662;BME280;30314;48.184;11.510;2023-05-08T08:38:41;96374.88;;;13.64;100.00
7662;BME280;30314;48.184;11.510;2023-05-08T08:41:07;96383.41;;;13.61;100.00
7662;BME280;30314;48.184;11.510;2023-05-08T08:43:34;96383.59;;;13.65;100.00
7662;BME280;30314;48.184;11.510;2023-05-08T08:46:09;96380.38;;;13.82;100.00
7662;BME280;30314;48.184;11.510;2023-05-08T08:48:36;96373.91;;;13.88;100.00
7662;BME280;30314;48.184;11.510;2023-05-08T08:51:05;96375.38;;;13.94;100.00
7662;BME280;30314;48.184;11.510;2023-05-08T08:53:43;96372.34;;;14.15;100.00
7662;BME280;30314;48.184;11.510;2023-05-08T08:56:12;96369.69;;;14.01;100.00
7662;BME280;30314;48.184;11.510;2023-05-08T08:58:47;96363.28;;;14.02;100.00
7662;BME280;30314;48.184;11.510;2023-05-08T09:01:17;96376.75;;;13.92;99.70
7662;BME280;30314;48.184;11.510;2023-05-08T09:03:44;96363.97;;;13.80;100.00
7662;BME280;30314;48.184;11.510;2023-05-08T09:06:15;96374.69;;;14.03;100.00
7662;BME280;30314;48.184;11.510;2023-05-08T09:08:42;96371.66;;;13.95;97.57
7662;BME280;30314;48.184;11.510;2023-05-08T09:11:09;96380.97;;;13.93;100.00
7662;BME280;30314;48.184;11.510;2023-05-08T09:13:36;96377.56;;;13.92;97.93
7662;BME280;30314;48.184;11.510;2023-05-08T09:16:02;96383.94;;;13.91;97.93
7662;BME280;30314;48.184;11.510;2023-05-08T09:18:29;96375.66;;;13.93;97.65
7662;BME280;30314;48.184;11.510;2023-05-08T09:20:56;96378.63;;;13.91;100.00
7662;BME280;30314;48.184;11.510;2023-05-08T09:23:22;96380.66;;;13.80;98.67
7662;BME280;30314;48.184;11.510;2023-05-08T09:25:49;96385.59;;;13.87;99.89
7662;BME280;30314;48.184;11.510;2023-05-08T09:28:16;96384.03;;;13.86;98.75
7662;BME280;30314;48.184;11.510;2023-05-08T09:30:54;96397.31;;;13.86;100.00
7662;BME280;30314;48.184;11.510;2023-05-08T09:33:24;96387.97;;;13.89;100.00
7662;BME280;30314;48.184;11.510;2023-05-08T09:35:51;96383.63;;;13.93;100.00
7662;BME280;30314;48.184;11.510;2023-05-08T09:38:44;96388.50;;;14.19;100.00
7662;BME280;30314;48.184;11.510;2023-05-08T09:41:15;96387.41;;;14.20;100.00
7662;BME280;30314;48.184;11.510;2023-05-08T09:43:43;96393.63;;;14.29;98.49
7662;BME280;30314;48.184;11.510;2023-05-08T09:48:50;96381.59;;;14.46;97.99
7662;BME280;30314;48.184;11.510;2023-05-08T09:51:18;96384.63;;;14.53;97.30
7662;BME280;30314;48.184;11.510;2023-05-08T09:53:44;96385.50;;;14.62;100.00
7662;BME280;30314;48.184;11.510;2023-05-08T09:56:11;96388.38;;;14.52;97.47
7662;BME280;30314;48.184;11.510;2023-05-08T09:58:38;96385.22;;;14.50;96.94
7662;BME280;30314;48.184;11.510;2023-05-08T10:01:06;96381.56;;;14.60;100.00
7662;BME280;30314;48.184;11.510;2023-05-08T10:03:47;96393.31;;;14.82;97.51
7662;BME280;30314;48.184;11.510;2023-05-08T10:06:14;96381.31;;;14.84;95.60
7662;BME280;30314;48.184;11.510;2023-05-08T10:08:41;96382.94;;;14.94;97.55
7662;BME280;30314;48.184;11.510;2023-05-08T10:11:19;96382.28;;;14.88;95.07
7662;BME280;30314;48.184;11.510;2023-05-08T10:13:46;96389.06;;;14.94;97.62
7662;BME280;30314;48.184;11.510;2023-05-08T10:16:14;96393.06;;;15.06;97.96
7662;BME280;30314;48.184;11.510;2023-05-08T10:18:47;96382.00;;;14.90;93.99
7662;BME280;30314;48.184;11.510;2023-05-08T10:21:15;96387.72;;;14.83;99.00
7662;BME280;30314;48.184;11.510;2023-05-08T10:23:43;96378.00;;;15.01;97.69
7662;BME280;30314;48.184;11.510;2023-05-08T10:26:14;96380.13;;;14.90;98.08
7662;BME280;30314;48.184;11.510;2023-05-08T10:31:16;96377.69;;;15.03;99.67
7662;BME280;30314;48.184;11.510;2023-05-08T10:33:44;96372.16;;;15.13;97.71
7662;BME280;30314;48.184;11.510;2023-05-08T10:36:12;96375.91;;;15.35;99.32
7662;BME280;30314;48.184;11.510;2023-05-08T10:38:40;96370.84;;;15.47;100.00
7662;BME280;30314;48.184;11.510;2023-05-08T10:41:07;96374.63;;;15.55;95.88
7662;BME280;30314;48.184;11.510;2023-05-08T10:43:41;96374.69;;;15.64;95.04
7662;BME280;30314;48.184;11.510;2023-05-08T10:48:52;96370.66;;;15.75;100.00
7662;BME280;30314;48.184;11.510;2023-05-08T10:51:31;96379.19;;;15.95;97.12
7662;BME280;30314;48.184;11.510;2023-05-08T10:54:05;96376.59;;;16.04;91.50
7662;BME280;30314;48.184;11.510;2023-05-08T10:56:36;96365.13;;;16.03;97.18
7662;BME280;30314;48.184;11.510;2023-05-08T10:59:04;96369.84;;;16.06;99.74
7662;BME280;30314;48.184;11.510;2023-05-08T11:01:31;96363.94;;;16.18;97.85
7662;BME280;30314;48.184;11.510;2023-05-08T11:03:57;96370.09;;;16.37;96.57
7662;BME280;30314;48.184;11.510;2023-05-08T11:06:45;96367.13;;;16.47;91.90
7662;BME280;30314;48.184;11.510;2023-05-08T11:14:56;96360.03;;;16.33;89.75
7662;BME280;30314;48.184;11.510;2023-05-08T11:17:25;96363.34;;;16.48;89.31
7662;BME280;30314;48.184;11.510;2023-05-08T11:19:59;96357.28;;;16.56;86.12
7662;BME280;30314;48.184;11.510;2023-05-08T11:22:31;96350.19;;;16.43;91.96
7662;BME280;30314;48.184;11.510;2023-05-08T11:24:59;96354.44;;;16.44;85.29
7662;BME280;30314;48.184;11.510;2023-05-08T11:27:37;96351.28;;;16.33;91.00
7662;BME280;30314;48.184;11.510;2023-05-08T11:35:54;96346.91;;;16.46;90.71
7662;BME280;30314;48.184;11.510;2023-05-08T11:38:33;96342.84;;;16.48;89.72
7662;BME280;30314;48.184;11.510;2023-05-08T11:41:06;96341.28;;;16.47;87.37
7662;BME280;30314;48.184;11.510;2023-05-08T11:46:06;96344.31;;;16.64;90.20
7662;BME280;30314;48.184;11.510;2023-05-08T11:48:39;96354.13;;;16.45;84.27
7662;BME280;30314;48.184;11.510;2023-05-08T11:51:06;96348.28;;;16.34;86.31
7662;BME280;30314;48.184;11.510;2023-05-08T11:53:34;96348.94;;;16.49;90.67
7662;BME280;30314;48.184;11.510;2023-05-08T11:56:02;96336.88;;;16.52;89.61
7662;BME280;30314;48.184;11.510;2023-05-08T11:58:29;96351.97;;;16.74;81.09
7662;BME280;30314;48.184;11.510;2023-05-08T12:00:56;96348.53;;;16.65;86.58
7662;BME280;30314;48.184;11.510;2023-05-08T12:03:23;96358.03;;;16.48;86.37
7662;BME280;30314;48.184;11.510;2023-05-08T12:05:57;96351.47;;;16.45;87.55
7662;BME280;30314;48.184;11.510;2023-05-08T12:08:25;96354.44;;;16.53;85.22
7662;BME280;30314;48.184;11.510;2023-05-08T12:10:54;96348.66;;;16.59;87.19
7662;BME280;30314;48.184;11.510;2023-05-08T12:13:23;96355.53;;;16.52;85.84
7662;BME280;30314;48.184;11.510;2023-05-08T12:15:58;96348.63;;;16.42;85.55
7662;BME280;30314;48.184;11.510;2023-05-08T12:18:26;96354.75;;;16.51;89.03
7662;BME280;30314;48.184;11.510;2023-05-08T12:20:56;96362.47;;;16.61;88.17
7662;BME280;30314;48.184;11.510;2023-05-08T12:23:29;96358.09;;;16.74;86.41
7662;BME280;30314;48.184;11.510;2023-05-08T12:25:59;96355.75;;;16.73;87.11
7662;BME280;30314;48.184;11.510;2023-05-08T12:28:27;96352.91;;;16.60;81.04
7662;BME280;30314;48.184;11.510;2023-05-08T12:30:54;96352.13;;;16.69;81.28
7662;BME280;30314;48.184;11.510;2023-05-08T12:33:21;96354.63;;;16.74;79.58
7662;BME280;30314;48.184;11.510;2023-05-08T12:35:48;96350.88;;;16.75;80.82
7662;BME280;30314;48.184;11.510;2023-05-08T12:38:15;96355.44;;;16.74;79.49
7662;BME280;30314;48.184;11.510;2023-05-08T12:40:46;96357.75;;;16.58;80.95
7662;BME280;30314;48.184;11.510;2023-05-08T12:43:14;96358.09;;;16.66;81.87
7662;BME280;30314;48.184;11.510;2023-05-08T12:45:41;96355.22;;;16.53;81.94
7662;BME280;30314;48.184;11.510;2023-05-08T12:48:10;96358.06;;;16.57;84.09
7662;BME280;30314;48.184;11.510;2023-05-08T12:50:39;96352.25;;;16.55;84.74
7662;BME280;30314;48.184;11.510;2023-05-08T12:53:07;96349.00;;;16.67;79.17
7662;BME280;30314;48.184;11.510;2023-05-08T12:55:36;96348.97;;;16.58;80.61
7662;BME280;30314;48.184;11.510;2023-05-08T12:58:11;96345.03;;;16.46;83.32
7662;BME280;30314;48.184;11.510;2023-05-08T13:00:48;96350.50;;;16.41;85.01
7662;BME280;30314;48.184;11.510;2023-05-08T13:03:22;96338.88;;;16.28;86.32
7662;BME280;30314;48.184;11.510;2023-05-08T13:05:52;96339.69;;;16.38;86.14
7662;BME280;30314;48.184;11.510;2023-05-08T13:08:19;96324.47;;;16.29;82.96
7662;BME280;30314;48.184;11.510;2023-05-08T13:10:50;96351.75;;;16.44;84.48
7662;BME280;30314;48.184;11.510;2023-05-08T13:13:18;96333.09;;;16.35;81.79
7662;BME280;30314;48.184;11.510;2023-05-08T13:15:47;96351.28;;;16.33;83.46
7662;BME280;30314;48.184;11.510;2023-05-08T13:18:14;96346.41;;;16.26;85.39
7662;BME280;30314;48.184;11.510;2023-05-08T13:20:41;96347.34;;;16.30;83.77
7662;BME280;30314;48.184;11.510;2023-05-08T13:23:09;96346.72;;;16.33;82.22
7662;BME280;30314;48.184;11.510;2023-05-08T13:25:37;96347.19;;;16.27;83.41
7662;BME280;30314;48.184;11.510;2023-05-08T13:28:05;96340.28;;;16.34;81.23
7662;BME280;30314;48.184;11.510;2023-05-08T13:30:32;96331.81;;;16.24;83.83
7662;BME280;30314;48.184;11.510;2023-05-08T13:32:59;96318.19;;;16.16;84.94
7662;BME280;30314;48.184;11.510;2023-05-08T13:35:26;96312.97;;;16.11;83.30
7662;BME280;30314;48.184;11.510;2023-05-08T13:37:54;96337.63;;;16.34;78.91
7662;BME280;30314;48.184;11.510;2023-05-08T13:40:22;96329.63;;;16.34;80.77
7662;BME280;30314;48.184;11.510;2023-05-08T13:42:49;96324.00;;;16.27;82.04
7662;BME280;30314;48.184;11.510;2023-05-08T13:45:16;96302.50;;;16.15;78.29